createdAt,value
2018-09-25T00:00:38.149Z,5.30
2018-09-25T00:01:47.645Z,5.20
2018-09-25T00:02:56.558Z,5.30
2018-09-25T00:04:05.327Z,5.20
2018-09-25T00:05:14.267Z,5.20
2018-09-25T00:06:23.059Z,5.20
2018-09-25T00:07:31.791Z,5.20
2018-09-25T00:08:40.457Z,5.20
2018-09-25T00:09:50.151Z,5.20
2018-09-25T00:10:59.619Z,5.20
2018-09-25T00:12:08.472Z,5.10
2018-09-25T00:13:17.526Z,5.10
2018-09-25T00:14:26.637Z,5.10
2018-09-25T00:15:35.397Z,5.10
2018-09-25T00:16:44.357Z,5.10
2018-09-25T00:17:53.170Z,5.10
2018-09-25T00:19:02.168Z,5.20
2018-09-25T00:20:11.316Z,5.30
2018-09-25T00:21:20.185Z,5.20
2018-09-25T00:22:29.817Z,5.20
2018-09-25T00:23:39.278Z,5.20
2018-09-25T00:24:48.048Z,5.20
2018-09-25T00:25:56.876Z,5.10
2018-09-25T00:27:05.687Z,5.10
2018-09-25T00:28:14.375Z,5.10
2018-09-25T00:29:23.296Z,5.10
2018-09-25T00:30:32.295Z,5.10
2018-09-25T00:31:41.153Z,5.10
2018-09-25T00:32:50.066Z,5.10
2018-09-25T00:33:58.845Z,5.10
2018-09-25T00:35:07.909Z,5.10
2018-09-25T00:36:17.401Z,5.00
2018-09-25T00:37:26.317Z,5.00
2018-09-25T00:38:35.021Z,5.00
2018-09-25T00:39:43.968Z,4.90
2018-09-25T00:40:52.841Z,4.90
2018-09-25T00:42:02.209Z,4.90
2018-09-25T00:43:10.876Z,4.90
2018-09-25T00:44:19.878Z,4.90
2018-09-25T00:45:28.748Z,4.80
2018-09-25T00:46:38.530Z,4.80
2018-09-25T00:47:47.599Z,4.80
2018-09-25T00:48:56.541Z,4.80
2018-09-25T00:50:05.418Z,4.80
2018-09-25T00:51:14.747Z,4.80
2018-09-25T00:52:23.768Z,4.90
2018-09-25T00:53:33.074Z,4.90
2018-09-25T00:54:42.050Z,4.80
2018-09-25T00:55:50.844Z,4.80
2018-09-25T00:57:00.110Z,4.80
2018-09-25T00:58:08.982Z,4.80
2018-09-25T00:59:18.506Z,4.80
2018-09-25T01:00:27.834Z,4.80
2018-09-25T01:01:36.659Z,4.80
2018-09-25T01:02:45.294Z,4.80
2018-09-25T01:03:54.057Z,4.80
2018-09-25T01:05:02.961Z,4.80
2018-09-25T01:06:11.812Z,4.70
2018-09-25T01:07:21.553Z,4.70
2018-09-25T01:08:30.686Z,4.70
2018-09-25T01:09:39.632Z,4.70
2018-09-25T01:10:48.332Z,4.60
2018-09-25T01:11:57.264Z,4.60
2018-09-25T01:13:06.227Z,4.60
2018-09-25T01:14:14.865Z,4.60
2018-09-25T01:15:24.105Z,4.50
2018-09-25T01:16:33.073Z,4.50
2018-09-25T01:17:41.784Z,4.50
2018-09-25T01:18:50.725Z,4.50
2018-09-25T01:19:59.503Z,4.50
2018-09-25T01:21:08.291Z,4.40
2018-09-25T01:22:17.082Z,4.40
2018-09-25T01:23:26.055Z,4.40
2018-09-25T01:24:35.634Z,4.40
2018-09-25T01:25:45.044Z,4.40
2018-09-25T01:26:53.862Z,4.40
2018-09-25T01:28:02.866Z,4.40
2018-09-25T01:29:11.811Z,4.40
2018-09-25T01:30:20.656Z,4.40
2018-09-25T01:31:29.375Z,4.40
2018-09-25T01:32:38.346Z,4.40
2018-09-25T01:33:47.156Z,4.40
2018-09-25T01:34:56.489Z,4.40
2018-09-25T01:36:05.483Z,4.40
2018-09-25T01:37:14.418Z,4.40
2018-09-25T01:38:23.838Z,4.40
2018-09-25T01:39:32.881Z,4.30
2018-09-25T01:40:41.895Z,4.40
2018-09-25T01:41:50.711Z,4.40
2018-09-25T01:43:00.268Z,4.40
2018-09-25T01:44:09.166Z,4.30
2018-09-25T01:45:18.321Z,4.30
2018-09-25T01:46:27.323Z,4.30
2018-09-25T01:47:36.943Z,4.30
2018-09-25T01:48:45.931Z,4.20
2018-09-25T01:49:54.708Z,4.20
2018-09-25T01:51:04.267Z,4.30
2018-09-25T01:52:13.187Z,4.40
2018-09-25T01:53:22.168Z,4.50
2018-09-25T01:54:31.169Z,4.50
2018-09-25T01:55:40.588Z,4.50
2018-09-25T01:56:49.510Z,4.50
2018-09-25T01:57:58.539Z,4.50
2018-09-25T01:59:07.296Z,4.60
2018-09-25T02:00:16.353Z,4.60
2018-09-25T02:01:25.773Z,4.50
2018-09-25T02:02:34.559Z,4.50
2018-09-25T02:03:44.286Z,4.50
2018-09-25T02:04:53.360Z,4.40
2018-09-25T02:06:02.790Z,4.40
2018-09-25T02:07:11.582Z,4.40
2018-09-25T02:08:21.151Z,4.30
2018-09-25T02:09:30.017Z,4.30
2018-09-25T02:10:39.001Z,4.30
2018-09-25T02:11:48.829Z,4.20
2018-09-25T02:12:57.639Z,4.30
2018-09-25T02:14:06.659Z,4.40
2018-09-25T02:15:15.619Z,4.80
2018-09-25T02:16:25.115Z,5.10
2018-09-25T02:17:34.839Z,5.40
2018-09-25T02:18:43.692Z,5.40
2018-09-25T02:19:52.632Z,5.20
2018-09-25T02:21:01.697Z,5.20
2018-09-25T02:22:10.966Z,5.10
2018-09-25T02:23:19.750Z,5.00
2018-09-25T02:24:28.669Z,5.00
2018-09-25T02:25:37.524Z,4.90
2018-09-25T02:26:46.493Z,5.00
2018-09-25T02:27:55.361Z,5.00
2018-09-25T02:29:04.267Z,4.90
2018-09-25T02:30:13.234Z,4.90
2018-09-25T02:31:22.025Z,4.80
2018-09-25T02:32:31.014Z,4.80
2018-09-25T02:33:39.870Z,4.70
2018-09-25T02:34:48.973Z,4.70
2018-09-25T02:35:57.746Z,4.60
2018-09-25T02:37:07.359Z,4.60
2018-09-25T02:38:16.187Z,4.50
2018-09-25T02:39:24.952Z,4.50
2018-09-25T02:40:33.753Z,4.40
2018-09-25T02:41:42.658Z,4.40
2018-09-25T02:42:51.512Z,4.30
2018-09-25T02:44:00.391Z,4.30
2018-09-25T02:45:09.495Z,4.30
2018-09-25T02:46:18.799Z,4.20
2018-09-25T02:47:27.601Z,4.20
2018-09-25T02:48:36.436Z,4.10
2018-09-25T02:49:45.343Z,4.10
2018-09-25T02:50:54.356Z,4.20
2018-09-25T02:52:03.258Z,4.20
2018-09-25T02:53:12.198Z,4.10
2018-09-25T02:54:21.036Z,4.10
2018-09-25T02:55:29.854Z,4.10
2018-09-25T02:56:38.730Z,4.10
2018-09-25T02:57:47.612Z,4.10
2018-09-25T02:58:56.289Z,4.00
2018-09-25T03:00:05.626Z,4.00
2018-09-25T03:01:14.523Z,4.00
2018-09-25T03:02:23.302Z,4.00
2018-09-25T03:03:33.088Z,4.00
2018-09-25T03:04:42.149Z,4.00
2018-09-25T03:05:51.913Z,3.90
2018-09-25T03:07:00.636Z,3.90
2018-09-25T03:08:09.485Z,3.80
2018-09-25T03:09:18.393Z,3.90
2018-09-25T03:10:27.156Z,3.80
2018-09-25T03:11:36.156Z,3.80
2018-09-25T03:12:45.497Z,3.80
2018-09-25T03:13:54.452Z,3.90
2018-09-25T03:15:03.287Z,3.90
2018-09-25T03:16:14.129Z,3.90
2018-09-25T03:17:22.931Z,3.90
2018-09-25T03:18:31.655Z,3.90
2018-09-25T03:19:40.696Z,3.90
2018-09-25T03:20:49.729Z,3.90
2018-09-25T03:21:58.474Z,3.90
2018-09-25T03:23:07.336Z,3.90
2018-09-25T03:24:16.311Z,4.00
2018-09-25T03:25:25.051Z,4.00
2018-09-25T03:26:34.041Z,3.90
2018-09-25T03:27:43.564Z,4.00
2018-09-25T03:28:52.460Z,4.00
2018-09-25T03:30:01.341Z,4.00
2018-09-25T03:31:10.184Z,4.00
2018-09-25T03:32:18.935Z,4.00
2018-09-25T03:33:28.462Z,4.00
2018-09-25T03:34:37.303Z,4.10
2018-09-25T03:35:46.121Z,4.10
2018-09-25T03:36:55.075Z,4.10
2018-09-25T03:38:03.838Z,4.10
2018-09-25T03:39:13.954Z,4.10
2018-09-25T03:40:22.645Z,4.10
2018-09-25T03:41:31.968Z,4.10
2018-09-25T03:42:40.805Z,4.10
2018-09-25T03:43:50.338Z,4.10
2018-09-25T03:45:00.264Z,4.20
2018-09-25T03:46:09.246Z,4.20
2018-09-25T03:47:18.728Z,4.30
2018-09-25T03:48:27.552Z,4.20
2018-09-25T03:49:37.046Z,4.20
2018-09-25T03:50:46.090Z,4.20
2018-09-25T03:51:55.197Z,4.20
2018-09-25T03:53:04.036Z,4.20
2018-09-25T03:54:12.986Z,4.20
2018-09-25T03:55:21.996Z,4.20
2018-09-25T03:56:31.808Z,4.20
2018-09-25T03:57:40.718Z,4.10
2018-09-25T03:58:50.207Z,4.10
2018-09-25T03:59:59.085Z,4.00
2018-09-25T04:01:07.973Z,4.00
2018-09-25T04:02:17.465Z,4.00
2018-09-25T04:03:26.920Z,4.00
2018-09-25T04:04:36.235Z,4.00
2018-09-25T04:05:45.215Z,4.00
2018-09-25T04:06:53.989Z,3.90
2018-09-25T04:08:02.768Z,4.00
2018-09-25T04:09:12.763Z,4.00
2018-09-25T04:10:21.651Z,4.00
2018-09-25T04:11:30.641Z,4.00
2018-09-25T04:12:39.423Z,4.00
2018-09-25T04:13:49.290Z,3.90
2018-09-25T04:14:58.099Z,3.80
2018-09-25T04:16:07.078Z,3.80
2018-09-25T04:17:15.735Z,3.70
2018-09-25T04:18:25.039Z,3.70
2018-09-25T04:19:34.017Z,3.60
2018-09-25T04:20:42.834Z,3.60
2018-09-25T04:21:51.833Z,3.60
2018-09-25T04:24:25.555Z,3.60
2018-09-25T04:25:34.490Z,3.90
2018-09-25T04:26:43.485Z,4.00
2018-09-25T04:27:52.760Z,4.00
2018-09-25T04:29:01.757Z,4.00
2018-09-25T04:30:10.967Z,4.00
2018-09-25T04:31:21.696Z,3.90
2018-09-25T04:32:30.499Z,4.00
2018-09-25T04:33:39.357Z,4.10
2018-09-25T04:34:48.701Z,4.10
2018-09-25T04:35:57.492Z,4.40
2018-09-25T04:37:07.510Z,4.90
2018-09-25T04:38:16.352Z,5.30
2018-09-25T04:39:25.014Z,5.60
2018-09-25T04:40:33.953Z,5.90
2018-09-25T04:41:42.866Z,6.10
2018-09-25T04:42:52.180Z,5.90
2018-09-25T04:44:00.983Z,5.70
2018-09-25T04:45:10.524Z,5.50
2018-09-25T04:46:19.553Z,5.50
2018-09-25T04:47:28.304Z,5.20
2018-09-25T04:48:38.227Z,5.10
2018-09-25T04:49:47.290Z,4.90
2018-09-25T04:50:56.258Z,4.70
2018-09-25T04:52:05.334Z,4.60
2018-09-25T04:53:14.303Z,4.60
2018-09-25T04:54:23.813Z,4.50
2018-09-25T04:55:32.600Z,4.70
2018-09-25T04:56:42.736Z,4.80
2018-09-25T04:57:52.311Z,4.80
2018-09-25T04:59:01.279Z,5.10
2018-09-25T05:00:10.585Z,5.40
2018-09-25T05:01:19.388Z,5.60
2018-09-25T05:02:28.274Z,5.60
2018-09-25T05:03:37.151Z,5.50
2018-09-25T05:04:46.024Z,5.30
2018-09-25T05:05:55.002Z,5.20
2018-09-25T05:07:04.917Z,5.10
2018-09-25T05:08:13.860Z,5.00
2018-09-25T05:09:22.793Z,4.80
2018-09-25T05:10:31.706Z,4.70
2018-09-25T05:11:41.543Z,4.60
2018-09-25T05:12:50.310Z,4.50
2018-09-25T05:13:59.295Z,4.50
2018-09-25T05:15:08.299Z,4.40
2018-09-25T05:16:18.605Z,4.30
2018-09-25T05:17:27.476Z,4.20
2018-09-25T05:18:37.001Z,4.40
2018-09-25T05:19:45.891Z,4.70
2018-09-25T05:20:54.842Z,4.90
2018-09-25T05:22:04.117Z,4.80
2018-09-25T05:23:13.003Z,4.70
2018-09-25T05:24:22.548Z,4.70
2018-09-25T05:25:31.552Z,4.60
2018-09-25T05:26:40.320Z,4.50
2018-09-25T05:27:49.720Z,4.50
2018-09-25T05:28:58.515Z,4.50
2018-09-25T05:30:07.476Z,4.40
2018-09-25T05:31:16.355Z,4.30
2018-09-25T05:32:25.107Z,4.30
2018-09-25T05:33:34.010Z,4.50
2018-09-25T05:34:42.925Z,4.40
2018-09-25T05:35:51.797Z,4.40
2018-09-25T05:37:00.590Z,4.30
2018-09-25T05:38:09.440Z,4.30
2018-09-25T05:39:18.291Z,4.20
2018-09-25T05:40:27.556Z,4.30
2018-09-25T05:41:36.429Z,4.40
2018-09-25T05:42:45.425Z,4.60
2018-09-25T05:43:54.928Z,4.70
2018-09-25T05:45:03.722Z,4.70
2018-09-25T05:46:12.775Z,4.70
2018-09-25T05:47:21.551Z,4.60
2018-09-25T05:48:30.616Z,4.70
2018-09-25T05:49:39.710Z,4.70
2018-09-25T05:50:48.685Z,4.70
2018-09-25T05:51:57.899Z,4.70
2018-09-25T05:53:06.867Z,4.70
2018-09-25T05:54:16.356Z,4.70
2018-09-25T05:55:25.080Z,4.70
2018-09-25T05:56:34.180Z,4.70
2018-09-25T05:57:42.913Z,4.70
2018-09-25T05:58:52.420Z,4.70
2018-09-25T06:00:01.330Z,4.80
2018-09-25T06:01:11.030Z,4.80
2018-09-25T06:02:20.000Z,4.80
2018-09-25T06:03:28.825Z,4.90
2018-09-25T06:04:38.881Z,5.00
2018-09-25T06:05:47.797Z,5.00
2018-09-25T06:06:56.725Z,5.10
2018-09-25T06:08:05.620Z,5.10
2018-09-25T06:09:14.658Z,5.20
2018-09-25T06:10:23.380Z,5.30
2018-09-25T06:11:32.597Z,5.40
2018-09-25T06:12:41.285Z,5.50
2018-09-25T06:13:49.950Z,5.60
2018-09-25T06:14:58.755Z,5.60
2018-09-25T06:16:08.528Z,5.60
2018-09-25T06:17:17.595Z,5.70
2018-09-25T06:18:26.710Z,5.80
2018-09-25T06:19:35.824Z,5.90
2018-09-25T06:20:45.773Z,6.00
2018-09-25T06:21:54.582Z,6.10
2018-09-25T06:23:03.419Z,6.30
2018-09-25T06:24:12.501Z,6.40
2018-09-25T06:25:21.192Z,6.50
2018-09-25T06:26:30.727Z,6.40
2018-09-25T06:27:39.829Z,6.50
2018-09-25T06:28:48.454Z,6.60
2018-09-25T06:29:57.393Z,6.60
2018-09-25T06:31:06.341Z,6.70
2018-09-25T06:32:15.190Z,6.70
2018-09-25T06:33:23.955Z,6.80
2018-09-25T06:34:32.727Z,7.40
2018-09-25T06:35:41.649Z,8.30
2018-09-25T06:36:50.312Z,8.30
2018-09-25T06:37:59.777Z,8.20
2018-09-25T06:39:11.446Z,8.10
2018-09-25T06:40:23.391Z,8.10
2018-09-25T06:41:32.780Z,8.20
2018-09-25T06:42:44.052Z,8.30
2018-09-25T06:43:54.907Z,8.40
2018-09-25T06:45:05.281Z,8.60
2018-09-25T06:46:15.141Z,8.80
2018-09-25T06:47:25.703Z,9.10
2018-09-25T06:48:34.714Z,9.50
2018-09-25T06:49:43.755Z,9.90
2018-09-25T06:50:54.673Z,10.30
2018-09-25T06:52:04.117Z,10.60
2018-09-25T06:53:13.185Z,11.00
2018-09-25T06:54:22.428Z,11.40
2018-09-25T06:55:31.401Z,11.70
2018-09-25T06:56:42.269Z,12.00
2018-09-25T06:57:51.904Z,12.20
2018-09-25T06:59:01.025Z,12.40
2018-09-25T07:00:10.229Z,12.70
2018-09-25T07:01:19.234Z,13.10
2018-09-25T07:02:28.606Z,13.30
2018-09-25T07:03:37.920Z,13.50
2018-09-25T07:04:47.208Z,13.80
2018-09-25T07:05:56.089Z,14.10
2018-09-25T07:07:04.956Z,14.20
2018-09-25T07:08:13.816Z,14.50
2018-09-25T07:09:22.719Z,14.80
2018-09-25T07:10:31.894Z,15.00
2018-09-25T07:11:40.713Z,15.00
2018-09-25T07:13:58.178Z,15.50
2018-09-25T07:15:06.994Z,15.60
2018-09-25T07:16:15.946Z,15.70
2018-09-25T07:17:24.984Z,15.90
2018-09-25T07:18:34.782Z,16.10
2018-09-25T07:19:43.562Z,16.30
2018-09-25T07:20:52.544Z,16.50
2018-09-25T07:22:01.518Z,16.70
2018-09-25T07:23:10.334Z,16.80
2018-09-25T07:24:19.326Z,16.80
2018-09-25T07:25:29.666Z,17.10
2018-09-25T07:26:38.675Z,17.30
2018-09-25T07:27:47.654Z,17.40
2018-09-25T07:28:56.551Z,17.50
2018-09-25T07:30:05.772Z,17.70
2018-09-25T07:31:14.921Z,18.00
2018-09-25T07:32:24.089Z,18.00
2018-09-25T07:33:33.294Z,18.10
2018-09-25T07:34:42.489Z,18.10
2018-09-25T07:36:12.740Z,18.10
2018-09-25T07:37:21.793Z,18.10
2018-09-25T07:38:31.076Z,18.20
2018-09-25T07:39:40.766Z,18.30
2018-09-25T07:40:49.643Z,18.40
2018-09-25T07:41:59.453Z,18.40
2018-09-25T07:43:08.223Z,18.50
2018-09-25T07:44:18.718Z,18.50
2018-09-25T07:45:28.177Z,18.60
2018-09-25T07:46:37.918Z,18.60
2018-09-25T07:47:46.923Z,18.80
2018-09-25T07:48:56.029Z,18.80
2018-09-25T07:50:05.018Z,18.70
2018-09-25T07:51:14.112Z,18.70
2018-09-25T07:52:23.009Z,18.70
2018-09-25T07:53:32.076Z,18.90
2018-09-25T07:54:40.956Z,19.00
2018-09-25T07:55:50.027Z,19.10
2018-09-25T07:56:59.201Z,19.10
2018-09-25T07:58:08.127Z,19.10
2018-09-25T07:59:17.725Z,19.10
2018-09-25T08:00:26.993Z,19.20
2018-09-25T08:01:36.697Z,19.10
2018-09-25T08:02:45.756Z,19.10
2018-09-25T08:03:54.747Z,19.20
2018-09-25T08:05:03.908Z,19.20
2018-09-25T08:06:13.079Z,19.30
2018-09-25T08:07:22.250Z,19.30
2018-09-25T08:08:31.519Z,19.20
2018-09-25T08:09:47.493Z,19.20
2018-09-25T08:10:56.391Z,19.20
2018-09-25T08:12:05.392Z,19.20
2018-09-25T08:13:14.641Z,19.30
2018-09-25T08:14:23.999Z,19.20
2018-09-25T08:15:33.182Z,19.20
2018-09-25T08:16:42.561Z,19.10
2018-09-25T08:17:51.596Z,19.20
2018-09-25T08:19:00.587Z,19.20
2018-09-25T08:20:17.492Z,19.30
2018-09-25T08:21:26.352Z,19.40
2018-09-25T08:22:35.429Z,19.50
2018-09-25T08:23:44.340Z,19.50
2018-09-25T08:24:53.558Z,19.60
2018-09-25T08:26:02.573Z,19.50
2018-09-25T08:27:11.762Z,19.60
2018-09-25T08:28:24.899Z,19.60
2018-09-25T08:29:34.054Z,19.70
2018-09-25T08:30:43.631Z,19.70
2018-09-25T08:31:52.871Z,19.80
2018-09-25T08:33:01.732Z,19.70
2018-09-25T08:34:10.794Z,19.70
2018-09-25T08:35:19.662Z,19.80
2018-09-25T08:36:28.466Z,19.80
2018-09-25T08:37:37.368Z,19.70
2018-09-25T08:38:46.324Z,19.80
2018-09-25T08:39:55.238Z,19.90
2018-09-25T08:41:04.313Z,19.80
2018-09-25T08:42:13.469Z,19.70
2018-09-25T08:43:24.153Z,19.60
2018-09-25T08:44:33.234Z,19.70
2018-09-25T08:45:51.545Z,19.80
2018-09-25T08:47:00.444Z,19.90
2018-09-25T08:48:09.381Z,20.00
2018-09-25T08:49:18.574Z,20.00
2018-09-25T08:50:27.515Z,20.10
2018-09-25T08:51:36.528Z,20.20
2018-09-25T08:52:45.346Z,20.20
2018-09-25T08:53:54.617Z,20.20
2018-09-25T08:55:03.602Z,20.10
2018-09-25T08:56:12.673Z,20.10
2018-09-25T08:57:21.758Z,20.00
2018-09-25T08:58:30.883Z,20.20
2018-09-25T08:59:41.213Z,20.50
2018-09-25T09:00:50.348Z,20.60
2018-09-25T09:01:59.490Z,20.60
2018-09-25T09:03:08.418Z,20.60
2018-09-25T09:04:17.582Z,20.50
2018-09-25T09:05:26.494Z,20.40
2018-09-25T09:06:35.467Z,20.30
2018-09-25T09:07:44.582Z,20.30
2018-09-25T09:08:53.512Z,20.40
2018-09-25T09:10:02.498Z,20.30
2018-09-25T09:11:11.690Z,20.20
2018-09-25T09:12:20.714Z,20.10
2018-09-25T09:13:29.548Z,19.90
2018-09-25T09:14:38.434Z,19.80
2018-09-25T09:15:47.149Z,19.60
2018-09-25T09:16:55.945Z,19.50
2018-09-25T09:18:04.732Z,19.40
2018-09-25T09:19:14.369Z,19.30
2018-09-25T09:20:23.142Z,19.30
2018-09-25T09:21:31.815Z,19.30
2018-09-25T09:22:40.670Z,19.30
2018-09-25T09:23:49.964Z,19.40
2018-09-25T09:24:58.718Z,19.50
2018-09-25T09:26:07.475Z,19.60
2018-09-25T09:27:16.916Z,19.50
2018-09-25T09:28:25.774Z,19.40
2018-09-25T09:29:34.428Z,19.20
2018-09-25T09:30:43.270Z,19.10
2018-09-25T09:31:52.007Z,18.80
2018-09-25T09:33:00.663Z,18.80
2018-09-25T09:34:09.465Z,18.60
2018-09-25T09:35:18.941Z,18.60
2018-09-25T09:36:27.667Z,18.60
2018-09-25T09:37:36.336Z,18.50
2018-09-25T09:38:45.268Z,18.20
2018-09-25T09:39:54.065Z,18.00
2018-09-25T09:41:02.995Z,17.80
2018-09-25T09:42:11.903Z,17.80
2018-09-25T09:43:20.755Z,17.80
2018-09-25T09:44:29.757Z,17.80
2018-09-25T09:45:38.727Z,17.80
2018-09-25T09:46:47.539Z,17.70
2018-09-25T09:47:56.310Z,17.70
2018-09-25T09:49:05.035Z,17.60
2018-09-25T09:50:14.047Z,17.40
2018-09-25T09:51:22.973Z,17.20
2018-09-25T09:52:31.939Z,16.90
2018-09-25T09:53:40.813Z,16.90
2018-09-25T09:54:49.669Z,16.90
2018-09-25T09:55:59.156Z,16.80
2018-09-25T09:57:07.873Z,16.90
2018-09-25T09:58:16.619Z,17.00
2018-09-25T09:59:25.493Z,16.90
2018-09-25T10:00:34.190Z,16.70
2018-09-25T10:01:43.051Z,16.60
2018-09-25T10:02:52.062Z,16.50
2018-09-25T10:04:01.001Z,16.50
2018-09-25T10:05:10.489Z,16.60
2018-09-25T10:06:19.269Z,16.60
2018-09-25T10:07:28.236Z,16.60
2018-09-25T10:08:37.224Z,16.60
2018-09-25T10:09:46.093Z,16.60
2018-09-25T10:10:54.897Z,16.70
2018-09-25T10:12:03.635Z,16.70
2018-09-25T10:13:12.697Z,16.70
2018-09-25T10:14:21.839Z,16.70
2018-09-25T10:15:30.624Z,16.70
2018-09-25T10:16:39.497Z,16.60
2018-09-25T10:17:48.530Z,16.40
2018-09-25T10:18:57.354Z,16.20
2018-09-25T10:20:06.348Z,16.10
2018-09-25T10:21:15.474Z,16.00
2018-09-25T10:22:24.349Z,16.00
2018-09-25T10:23:33.469Z,16.10
2018-09-25T10:24:42.337Z,16.20
2018-09-25T10:25:51.696Z,16.30
2018-09-25T10:27:01.555Z,16.40
2018-09-25T10:28:10.534Z,16.40
2018-09-25T10:29:19.456Z,16.60
2018-09-25T10:30:28.263Z,16.70
2018-09-25T10:31:37.115Z,16.90
2018-09-25T10:32:45.872Z,17.10
2018-09-25T10:33:54.929Z,17.20
2018-09-25T10:35:03.799Z,17.40
2018-09-25T10:36:12.769Z,17.50
2018-09-25T10:37:21.697Z,17.50
2018-09-25T10:38:30.441Z,17.60
2018-09-25T10:39:40.038Z,17.50
2018-09-25T10:40:48.967Z,17.50
2018-09-25T10:41:57.667Z,17.50
2018-09-25T10:43:06.651Z,17.60
2018-09-25T10:44:15.521Z,17.50
2018-09-25T10:45:24.459Z,17.50
2018-09-25T10:46:33.253Z,17.40
2018-09-25T10:47:41.975Z,17.50
2018-09-25T10:48:50.823Z,17.60
2018-09-25T10:49:59.895Z,17.50
2018-09-25T10:51:09.500Z,17.10
2018-09-25T10:52:20.061Z,17.00
2018-09-25T10:53:29.943Z,16.90
2018-09-25T10:54:39.747Z,16.80
2018-09-25T10:55:49.670Z,16.60
2018-09-25T10:57:00.111Z,16.60
2018-09-25T10:58:12.142Z,16.40
2018-09-25T10:59:23.066Z,16.40
2018-09-25T11:00:32.488Z,16.20
2018-09-25T11:01:41.924Z,16.10
2018-09-25T11:02:50.842Z,16.00
2018-09-25T11:03:59.665Z,16.00
2018-09-25T11:05:08.393Z,16.00
2018-09-25T11:06:17.806Z,15.90
2018-09-25T11:07:26.905Z,16.00
2018-09-25T11:08:35.795Z,16.00
2018-09-25T11:09:44.470Z,16.00
2018-09-25T11:10:53.481Z,16.10
2018-09-25T11:12:02.743Z,16.00
2018-09-25T11:13:11.926Z,16.10
2018-09-25T11:14:21.114Z,16.10
2018-09-25T11:15:29.903Z,16.20
2018-09-25T11:16:38.857Z,16.20
2018-09-25T11:17:47.752Z,16.30
2018-09-25T11:18:56.679Z,16.30
2018-09-25T11:20:05.514Z,16.50
2018-09-25T11:21:14.385Z,16.70
2018-09-25T11:22:23.362Z,16.80
2018-09-25T11:23:32.341Z,17.00
2018-09-25T11:24:41.341Z,17.10
2018-09-25T11:25:50.181Z,17.20
2018-09-25T11:26:59.065Z,17.20
2018-09-25T11:28:07.964Z,17.30
2018-09-25T11:29:17.023Z,17.40
2018-09-25T11:30:25.905Z,17.50
2018-09-25T11:31:34.852Z,17.60
2018-09-25T11:32:45.663Z,17.70
2018-09-25T11:33:55.655Z,17.80
2018-09-25T11:35:04.824Z,17.80
2018-09-25T11:36:13.645Z,17.90
2018-09-25T11:37:23.141Z,17.90
2018-09-25T11:38:32.033Z,17.90
2018-09-25T11:39:40.977Z,17.90
2018-09-25T11:40:50.003Z,18.00
2018-09-25T11:41:58.887Z,18.10
2018-09-25T11:43:07.659Z,18.10
2018-09-25T11:44:16.938Z,18.00
2018-09-25T11:45:25.792Z,18.00
2018-09-25T11:46:34.677Z,17.90
2018-09-25T11:47:43.784Z,18.00
2018-09-25T11:48:52.720Z,18.00
2018-09-25T11:50:01.826Z,18.00
2018-09-25T11:51:11.014Z,18.00
2018-09-25T11:52:20.852Z,17.80
2018-09-25T11:53:29.533Z,17.70
2018-09-25T11:54:38.492Z,17.70
2018-09-25T11:55:47.602Z,17.50
2018-09-25T11:56:56.471Z,17.50
2018-09-25T11:58:05.560Z,17.40
2018-09-25T11:59:14.208Z,17.40
2018-09-25T12:00:23.701Z,17.30
2018-09-25T12:01:32.862Z,17.20
2018-09-25T12:02:41.821Z,17.10
2018-09-25T12:03:51.250Z,17.00
2018-09-25T12:05:00.077Z,16.90
2018-09-25T12:06:08.889Z,16.70
2018-09-25T12:07:17.690Z,16.70
2018-09-25T12:08:26.720Z,16.60
2018-09-25T12:09:35.706Z,16.50
2018-09-25T12:10:44.430Z,16.50
2018-09-25T12:11:53.217Z,16.50
2018-09-25T12:13:02.484Z,16.50
2018-09-25T12:14:11.925Z,16.50
2018-09-25T12:15:20.894Z,16.40
2018-09-25T12:16:29.598Z,16.30
2018-09-25T12:17:39.186Z,16.20
2018-09-25T12:18:48.167Z,16.10
2018-09-25T12:19:57.815Z,16.00
2018-09-25T12:21:06.949Z,15.80
2018-09-25T12:22:15.904Z,15.80
2018-09-25T12:23:24.843Z,15.70
2018-09-25T12:24:33.849Z,15.60
2018-09-25T12:25:42.847Z,15.70
2018-09-25T12:26:51.637Z,15.80
2018-09-25T12:28:00.735Z,15.90
2018-09-25T12:29:09.757Z,15.90
2018-09-25T12:30:18.744Z,16.00
2018-09-25T12:31:27.489Z,16.10
2018-09-25T12:32:36.425Z,16.10
2018-09-25T12:33:45.413Z,16.10
2018-09-25T12:34:54.100Z,16.20
2018-09-25T12:36:03.165Z,16.30
2018-09-25T12:37:12.557Z,16.30
2018-09-25T12:38:21.339Z,16.30
2018-09-25T12:39:30.095Z,16.40
2018-09-25T12:40:39.005Z,16.40
2018-09-25T12:41:47.884Z,16.40
2018-09-25T12:42:56.739Z,16.40
2018-09-25T12:44:05.743Z,16.40
2018-09-25T12:45:14.739Z,16.40
2018-09-25T12:46:23.675Z,16.40
2018-09-25T12:47:32.661Z,16.40
2018-09-25T12:48:41.472Z,16.30
2018-09-25T12:49:51.051Z,16.40
2018-09-25T12:51:00.043Z,16.50
2018-09-25T12:52:08.986Z,16.50
2018-09-25T12:53:18.002Z,16.60
2018-09-25T12:54:26.931Z,16.70
2018-09-25T12:55:35.849Z,16.70
2018-09-25T12:56:44.988Z,16.70
2018-09-25T12:57:53.873Z,16.80
2018-09-25T12:59:02.998Z,16.80
2018-09-25T13:00:12.500Z,16.80
2018-09-25T13:01:21.627Z,16.80
2018-09-25T13:02:31.271Z,16.90
2018-09-25T13:03:40.376Z,17.00
2018-09-25T13:04:49.333Z,17.00
2018-09-25T13:05:58.727Z,17.10
2018-09-25T13:07:07.570Z,17.30
2018-09-25T13:08:16.858Z,17.40
2018-09-25T13:09:26.774Z,17.40
2018-09-25T13:10:35.720Z,17.40
2018-09-25T13:11:44.573Z,17.50
2018-09-25T13:12:53.680Z,17.60
2018-09-25T13:14:02.491Z,17.70
2018-09-25T13:15:11.805Z,17.80
2018-09-25T13:16:20.748Z,17.90
2018-09-25T13:17:30.645Z,17.90
2018-09-25T13:18:39.621Z,17.90
2018-09-25T13:19:49.351Z,17.90
2018-09-25T13:20:58.263Z,17.80
2018-09-25T13:22:07.732Z,17.80
2018-09-25T13:23:16.622Z,17.80
2018-09-25T13:24:25.821Z,17.80
2018-09-25T13:25:34.783Z,17.90
2018-09-25T13:26:43.756Z,17.80
2018-09-25T13:27:52.802Z,17.70
2018-09-25T13:29:01.524Z,17.80
2018-09-25T13:36:04.252Z,17.70
2018-09-25T13:37:12.983Z,17.60
2018-09-25T13:38:22.534Z,17.60
2018-09-25T13:39:31.931Z,17.60
2018-09-25T13:40:40.815Z,17.60
2018-09-25T13:41:49.667Z,17.70
2018-09-25T13:42:59.376Z,17.50
2018-09-25T13:44:08.735Z,17.50
2018-09-25T13:45:17.821Z,17.40
2018-09-25T13:46:27.633Z,17.40
2018-09-25T13:47:36.760Z,17.50
2018-09-25T13:48:45.639Z,17.50
2018-09-25T13:49:54.681Z,17.50
2018-09-25T13:51:03.948Z,17.50
2018-09-25T13:52:13.039Z,17.40
2018-09-25T13:53:22.165Z,17.40
2018-09-25T13:54:31.032Z,17.50
2018-09-25T13:55:40.767Z,17.40
2018-09-25T13:56:49.645Z,17.40
2018-09-25T13:57:58.367Z,17.30
2018-09-25T13:59:07.814Z,17.20
2018-09-25T14:00:16.827Z,17.20
2018-09-25T14:01:25.794Z,17.10
2018-09-25T14:02:34.807Z,17.00
2018-09-25T14:03:43.728Z,17.00
2018-09-25T14:04:52.446Z,16.90
2018-09-25T14:06:02.093Z,16.90
2018-09-25T14:07:11.378Z,16.80
2018-09-25T14:08:20.255Z,16.80
2018-09-25T14:09:29.079Z,16.80
2018-09-25T14:10:37.908Z,16.70
2018-09-25T14:11:47.078Z,16.60
2018-09-25T14:12:56.219Z,16.40
2018-09-25T14:14:05.163Z,16.20
2018-09-25T14:15:14.008Z,16.10
2018-09-25T14:16:22.891Z,16.00
2018-09-25T14:17:31.905Z,15.90
2018-09-25T14:18:40.916Z,15.90
2018-09-25T14:19:49.805Z,15.80
2018-09-25T14:20:58.693Z,15.80
2018-09-25T14:22:07.685Z,15.90
2018-09-25T14:23:16.748Z,15.90
2018-09-25T14:24:25.612Z,16.00
2018-09-25T14:25:34.516Z,16.00
2018-09-25T14:26:43.416Z,16.00
2018-09-25T14:27:52.413Z,16.00
2018-09-25T14:29:01.281Z,16.00
2018-09-25T14:30:10.298Z,16.10
2018-09-25T14:31:19.157Z,16.10
2018-09-25T14:32:28.130Z,16.10
2018-09-25T14:33:37.205Z,16.10
2018-09-25T14:34:46.151Z,16.20
2018-09-25T14:35:55.556Z,16.10
2018-09-25T14:37:04.445Z,16.00
2018-09-25T14:38:13.212Z,15.90
2018-09-25T14:39:22.158Z,15.80
2018-09-25T14:40:31.086Z,15.70
2018-09-25T14:41:39.950Z,15.60
2018-09-25T14:42:48.752Z,15.60
2018-09-25T14:43:57.697Z,15.50
2018-09-25T14:45:06.747Z,15.50
2018-09-25T14:46:15.574Z,15.50
2018-09-25T14:47:24.229Z,15.50
2018-09-25T14:48:33.756Z,15.50
2018-09-25T14:49:42.887Z,15.50
2018-09-25T14:50:51.759Z,15.50
2018-09-25T14:52:00.888Z,15.50
2018-09-25T14:53:10.311Z,15.50
2018-09-25T14:54:19.226Z,15.50
2018-09-25T14:55:28.126Z,15.60
2018-09-25T14:56:37.018Z,15.60
2018-09-25T14:57:46.450Z,15.50
2018-09-25T14:58:55.344Z,15.50
2018-09-25T15:00:04.216Z,15.50
2018-09-25T15:01:13.469Z,15.60
2018-09-25T15:02:22.459Z,15.60
2018-09-25T15:03:31.362Z,15.70
2018-09-25T15:04:40.469Z,15.70
2018-09-25T15:05:49.728Z,15.70
2018-09-25T15:06:58.633Z,15.80
2018-09-25T15:08:07.392Z,15.70
2018-09-25T15:09:16.450Z,15.70
2018-09-25T15:10:25.436Z,15.80
2018-09-25T15:11:34.405Z,15.80
2018-09-25T15:12:43.268Z,15.70